sensor_id;sensor_type;location;lat;lon;timestamp;P1;durP1;ratioP1;P2;durP2;ratioP2
8462;SDS011;4268;52.506;13.462;2023-02-08T00:00:33;32.37;;;26.40;;
8462;SDS011;4268;52.506;13.462;2023-02-08T00:02:58;35.07;;;25.83;;
8462;SDS011;4268;52.506;13.462;2023-02-08T00:05:24;33.93;;;25.17;;
8462;SDS011;4268;52.506;13.462;2023-02-08T00:07:49;30.33;;;24.30;;
8462;SDS011;4268;52.506;13.462;2023-02-08T00:10:15;32.80;;;24.97;;
8462;SDS011;4268;52.506;13.462;2023-02-08T00:12:40;32.97;;;25.93;;
8462;SDS011;4268;52.506;13.462;2023-02-08T00:15:06;30.17;;;23.50;;
8462;SDS011;4268;52.506;13.462;2023-02-08T00:17:32;30.40;;;24.67;;
8462;SDS011;4268;52.506;13.462;2023-02-08T00:19:57;32.67;;;25.23;;
8462;SDS011;4268;52.506;13.462;2023-02-08T00:22:23;32.73;;;23.83;;
8462;SDS011;4268;52.506;13.462;2023-02-08T00:24:48;32.13;;;24.40;;
8462;SDS011;4268;52.506;13.462;2023-02-08T00:27:15;35.83;;;25.23;;
8462;SDS011;4268;52.506;13.462;2023-02-08T00:29:41;32.43;;;25.80;;
8462;SDS011;4268;52.506;13.462;2023-02-08T00:32:07;34.13;;;26.53;;
8462;SDS011;4268;52.506;13.462;2023-02-08T00:34:32;34.43;;;26.67;;
8462;SDS011;4268;52.506;13.462;2023-02-08T00:36:59;35.10;;;27.83;;
8462;SDS011;4268;52.506;13.462;2023-02-08T00:39:25;38.07;;;28.70;;
8462;SDS011;4268;52.506;13.462;2023-02-08T00:41:50;34.30;;;27.00;;
8462;SDS011;4268;52.506;13.462;2023-02-08T00:44:16;37.97;;;28.07;;
8462;SDS011;4268;52.506;13.462;2023-02-08T00:46:41;34.13;;;26.30;;
8462;SDS011;4268;52.506;13.462;2023-02-08T00:49:07;33.13;;;27.07;;
8462;SDS011;4268;52.506;13.462;2023-02-08T00:51:32;33.87;;;26.43;;
8462;SDS011;4268;52.506;13.462;2023-02-08T00:53:58;32.80;;;25.93;;
8462;SDS011;4268;52.506;13.462;2023-02-08T00:56:23;31.37;;;25.27;;
8462;SDS011;4268;52.506;13.462;2023-02-08T00:58:48;31.73;;;25.00;;
8462;SDS011;4268;52.506;13.462;2023-02-08T01:01:14;32.50;;;25.20;;
8462;SDS011;4268;52.506;13.462;2023-02-08T01:03:40;37.77;;;26.17;;
8462;SDS011;4268;52.506;13.462;2023-02-08T01:06:08;33.20;;;25.60;;
8462;SDS011;4268;52.506;13.462;2023-02-08T01:08:35;32.07;;;24.83;;
8462;SDS011;4268;52.506;13.462;2023-02-08T01:11:02;31.53;;;24.47;;
8462;SDS011;4268;52.506;13.462;2023-02-08T01:13:29;34.00;;;25.03;;
8462;SDS011;4268;52.506;13.462;2023-02-08T01:15:54;34.50;;;25.50;;
8462;SDS011;4268;52.506;13.462;2023-02-08T01:18:20;31.23;;;24.17;;
8462;SDS011;4268;52.506;13.462;2023-02-08T01:20:45;31.67;;;24.83;;
8462;SDS011;4268;52.506;13.462;2023-02-08T01:23:11;30.97;;;24.43;;
8462;SDS011;4268;52.506;13.462;2023-02-08T01:25:36;34.47;;;25.47;;
8462;SDS011;4268;52.506;13.462;2023-02-08T01:28:02;34.27;;;25.57;;
8462;SDS011;4268;52.506;13.462;2023-02-08T01:30:27;31.77;;;24.30;;
8462;SDS011;4268;52.506;13.462;2023-02-08T01:32:53;28.97;;;23.53;;
8462;SDS011;4268;52.506;13.462;2023-02-08T01:35:18;30.83;;;23.63;;
8462;SDS011;4268;52.506;13.462;2023-02-08T01:37:43;32.27;;;24.13;;
8462;SDS011;4268;52.506;13.462;2023-02-08T01:40:09;30.03;;;23.50;;
8462;SDS011;4268;52.506;13.462;2023-02-08T01:42:35;29.73;;;23.17;;
8462;SDS011;4268;52.506;13.462;2023-02-08T01:47:46;31.70;;;25.43;;
8462;SDS011;4268;52.506;13.462;2023-02-08T01:50:16;30.93;;;24.43;;
8462;SDS011;4268;52.506;13.462;2023-02-08T01:52:44;28.33;;;22.93;;
8462;SDS011;4268;52.506;13.462;2023-02-08T01:55:14;31.50;;;24.33;;
8462;SDS011;4268;52.506;13.462;2023-02-08T01:57:44;29.37;;;22.67;;
8462;SDS011;4268;52.506;13.462;2023-02-08T02:00:11;31.37;;;23.73;;
8462;SDS011;4268;52.506;13.462;2023-02-08T02:02:40;30.87;;;22.93;;
8462;SDS011;4268;52.506;13.462;2023-02-08T02:05:07;30.77;;;23.37;;
8462;SDS011;4268;52.506;13.462;2023-02-08T02:07:34;29.33;;;22.83;;
8462;SDS011;4268;52.506;13.462;2023-02-08T02:10:11;31.20;;;23.23;;
8462;SDS011;4268;52.506;13.462;2023-02-08T02:12:42;29.87;;;22.40;;
8462;SDS011;4268;52.506;13.462;2023-02-08T02:15:08;27.47;;;22.77;;
8462;SDS011;4268;52.506;13.462;2023-02-08T02:17:35;28.23;;;22.97;;
8462;SDS011;4268;52.506;13.462;2023-02-08T02:25:11;32.00;;;24.10;;
8462;SDS011;4268;52.506;13.462;2023-02-08T02:34:01;30.87;;;24.17;;
8462;SDS011;4268;52.506;13.462;2023-02-08T02:36:41;31.10;;;22.87;;
8462;SDS011;4268;52.506;13.462;2023-02-08T02:39:24;30.37;;;23.17;;
8462;SDS011;4268;52.506;13.462;2023-02-08T02:44:57;30.03;;;23.10;;
8462;SDS011;4268;52.506;13.462;2023-02-08T02:48:01;31.30;;;24.43;;
8462;SDS011;4268;52.506;13.462;2023-02-08T02:53:39;29.33;;;22.50;;
8462;SDS011;4268;52.506;13.462;2023-02-08T02:56:08;33.57;;;22.90;;
8462;SDS011;4268;52.506;13.462;2023-02-08T02:58:39;25.23;;;21.13;;
8462;SDS011;4268;52.506;13.462;2023-02-08T03:01:06;28.97;;;21.50;;
8462;SDS011;4268;52.506;13.462;2023-02-08T03:03:32;28.83;;;22.20;;
8462;SDS011;4268;52.506;13.462;2023-02-08T03:06:06;27.63;;;22.37;;
8462;SDS011;4268;52.506;13.462;2023-02-08T03:08:43;28.00;;;21.63;;
8462;SDS011;4268;52.506;13.462;2023-02-08T03:11:25;32.23;;;22.43;;
8462;SDS011;4268;52.506;13.462;2023-02-08T03:16:41;29.73;;;22.63;;
8462;SDS011;4268;52.506;13.462;2023-02-08T03:19:26;28.77;;;21.30;;
8462;SDS011;4268;52.506;13.462;2023-02-08T03:22:19;28.97;;;21.37;;
8462;SDS011;4268;52.506;13.462;2023-02-08T03:25:17;25.50;;;19.90;;
8462;SDS011;4268;52.506;13.462;2023-02-08T03:28:07;26.27;;;20.30;;
8462;SDS011;4268;52.506;13.462;2023-02-08T03:33:57;26.47;;;20.57;;
8462;SDS011;4268;52.506;13.462;2023-02-08T03:36:41;29.53;;;20.40;;
8462;SDS011;4268;52.506;13.462;2023-02-08T03:39:19;25.33;;;20.10;;
8462;SDS011;4268;52.506;13.462;2023-02-08T03:41:48;25.23;;;20.13;;
8462;SDS011;4268;52.506;13.462;2023-02-08T03:44:19;26.37;;;19.73;;
8462;SDS011;4268;52.506;13.462;2023-02-08T03:46:57;21.20;;;17.33;;
8462;SDS011;4268;52.506;13.462;2023-02-08T03:49:30;22.57;;;17.93;;
8462;SDS011;4268;52.506;13.462;2023-02-08T03:52:00;24.03;;;18.70;;
8462;SDS011;4268;52.506;13.462;2023-02-08T03:54:29;21.50;;;16.70;;
8462;SDS011;4268;52.506;13.462;2023-02-08T03:57:03;22.47;;;16.73;;
8462;SDS011;4268;52.506;13.462;2023-02-08T03:59:34;24.23;;;18.10;;
8462;SDS011;4268;52.506;13.462;2023-02-08T04:02:04;19.97;;;16.43;;
8462;SDS011;4268;52.506;13.462;2023-02-08T04:04:34;22.53;;;17.37;;
8462;SDS011;4268;52.506;13.462;2023-02-08T04:07:02;23.27;;;18.63;;
8462;SDS011;4268;52.506;13.462;2023-02-08T04:09:28;21.63;;;16.97;;
8462;SDS011;4268;52.506;13.462;2023-02-08T04:11:53;25.90;;;23.10;;
8462;SDS011;4268;52.506;13.462;2023-02-08T04:14:19;21.60;;;16.77;;
8462;SDS011;4268;52.506;13.462;2023-02-08T04:16:44;23.43;;;17.80;;
8462;SDS011;4268;52.506;13.462;2023-02-08T04:19:10;22.77;;;17.20;;
8462;SDS011;4268;52.506;13.462;2023-02-08T04:21:35;24.90;;;18.30;;
8462;SDS011;4268;52.506;13.462;2023-02-08T04:24:01;22.87;;;17.47;;
8462;SDS011;4268;52.506;13.462;2023-02-08T04:26:26;24.00;;;17.60;;
8462;SDS011;4268;52.506;13.462;2023-02-08T04:28:52;22.17;;;17.50;;
8462;SDS011;4268;52.506;13.462;2023-02-08T04:31:17;21.60;;;17.37;;
8462;SDS011;4268;52.506;13.462;2023-02-08T04:33:43;25.40;;;17.53;;
8462;SDS011;4268;52.506;13.462;2023-02-08T04:36:08;23.43;;;17.43;;
8462;SDS011;4268;52.506;13.462;2023-02-08T04:38:34;24.00;;;17.93;;
8462;SDS011;4268;52.506;13.462;2023-02-08T04:41:00;23.27;;;17.63;;
8462;SDS011;4268;52.506;13.462;2023-02-08T04:43:26;20.37;;;16.90;;
8462;SDS011;4268;52.506;13.462;2023-02-08T04:45:51;22.57;;;16.80;;
8462;SDS011;4268;52.506;13.462;2023-02-08T04:48:17;23.40;;;17.67;;
8462;SDS011;4268;52.506;13.462;2023-02-08T04:50:43;21.60;;;16.87;;
8462;SDS011;4268;52.506;13.462;2023-02-08T04:53:08;20.40;;;16.73;;
8462;SDS011;4268;52.506;13.462;2023-02-08T04:55:34;21.07;;;16.80;;
8462;SDS011;4268;52.506;13.462;2023-02-08T04:58:00;20.93;;;16.77;;
8462;SDS011;4268;52.506;13.462;2023-02-08T05:00:26;22.27;;;17.17;;
8462;SDS011;4268;52.506;13.462;2023-02-08T05:02:52;25.77;;;18.10;;
8462;SDS011;4268;52.506;13.462;2023-02-08T05:05:18;22.93;;;17.40;;
8462;SDS011;4268;52.506;13.462;2023-02-08T05:07:44;24.17;;;18.07;;
8462;SDS011;4268;52.506;13.462;2023-02-08T05:10:09;22.67;;;17.47;;
8462;SDS011;4268;52.506;13.462;2023-02-08T05:12:35;21.87;;;16.97;;
8462;SDS011;4268;52.506;13.462;2023-02-08T05:15:00;23.30;;;17.53;;
8462;SDS011;4268;52.506;13.462;2023-02-08T05:17:26;24.40;;;17.97;;
8462;SDS011;4268;52.506;13.462;2023-02-08T05:19:51;22.80;;;17.33;;
8462;SDS011;4268;52.506;13.462;2023-02-08T05:22:17;23.17;;;17.73;;
8462;SDS011;4268;52.506;13.462;2023-02-08T05:24:42;22.07;;;18.70;;
8462;SDS011;4268;52.506;13.462;2023-02-08T05:27:07;23.73;;;17.80;;
8462;SDS011;4268;52.506;13.462;2023-02-08T05:29:33;25.37;;;18.20;;
8462;SDS011;4268;52.506;13.462;2023-02-08T05:31:58;24.30;;;18.23;;
8462;SDS011;4268;52.506;13.462;2023-02-08T05:34:24;25.97;;;19.10;;
8462;SDS011;4268;52.506;13.462;2023-02-08T05:36:49;25.63;;;18.70;;
8462;SDS011;4268;52.506;13.462;2023-02-08T05:39:15;25.13;;;22.07;;
8462;SDS011;4268;52.506;13.462;2023-02-08T05:41:40;25.40;;;19.10;;
8462;SDS011;4268;52.506;13.462;2023-02-08T05:44:06;25.87;;;19.13;;
8462;SDS011;4268;52.506;13.462;2023-02-08T05:46:31;25.63;;;18.77;;
8462;SDS011;4268;52.506;13.462;2023-02-08T05:48:57;28.57;;;19.93;;
8462;SDS011;4268;52.506;13.462;2023-02-08T05:51:22;22.73;;;17.70;;
8462;SDS011;4268;52.506;13.462;2023-02-08T05:53:48;23.73;;;18.93;;
8462;SDS011;4268;52.506;13.462;2023-02-08T05:56:13;24.90;;;18.53;;
8462;SDS011;4268;52.506;13.462;2023-02-08T05:58:39;23.17;;;17.20;;
8462;SDS011;4268;52.506;13.462;2023-02-08T06:01:09;24.47;;;19.80;;
8462;SDS011;4268;52.506;13.462;2023-02-08T06:03:35;23.23;;;18.53;;
8462;SDS011;4268;52.506;13.462;2023-02-08T06:06:02;27.63;;;22.00;;
8462;SDS011;4268;52.506;13.462;2023-02-08T06:08:27;27.33;;;20.87;;
8462;SDS011;4268;52.506;13.462;2023-02-08T06:10:53;26.90;;;19.93;;
8462;SDS011;4268;52.506;13.462;2023-02-08T06:13:18;24.93;;;19.00;;
8462;SDS011;4268;52.506;13.462;2023-02-08T06:15:44;26.03;;;19.93;;
8462;SDS011;4268;52.506;13.462;2023-02-08T06:18:10;25.73;;;19.33;;
8462;SDS011;4268;52.506;13.462;2023-02-08T06:20:36;27.37;;;20.13;;
8462;SDS011;4268;52.506;13.462;2023-02-08T06:23:02;26.70;;;20.27;;
8462;SDS011;4268;52.506;13.462;2023-02-08T06:25:28;25.67;;;19.83;;
8462;SDS011;4268;52.506;13.462;2023-02-08T06:27:53;29.50;;;19.83;;
8462;SDS011;4268;52.506;13.462;2023-02-08T06:30:19;24.77;;;19.90;;
8462;SDS011;4268;52.506;13.462;2023-02-08T06:32:44;28.27;;;20.37;;
8462;SDS011;4268;52.506;13.462;2023-02-08T06:35:10;25.40;;;19.57;;
8462;SDS011;4268;52.506;13.462;2023-02-08T06:37:36;29.87;;;22.43;;
8462;SDS011;4268;52.506;13.462;2023-02-08T06:40:02;31.17;;;20.53;;
8462;SDS011;4268;52.506;13.462;2023-02-08T06:42:28;28.57;;;20.77;;
8462;SDS011;4268;52.506;13.462;2023-02-08T06:44:54;29.13;;;21.13;;
8462;SDS011;4268;52.506;13.462;2023-02-08T06:47:20;28.00;;;21.77;;
8462;SDS011;4268;52.506;13.462;2023-02-08T06:49:46;27.40;;;20.23;;
8462;SDS011;4268;52.506;13.462;2023-02-08T06:52:12;32.13;;;23.47;;
8462;SDS011;4268;52.506;13.462;2023-02-08T06:54:37;27.10;;;20.47;;
8462;SDS011;4268;52.506;13.462;2023-02-08T06:57:02;31.60;;;21.77;;
8462;SDS011;4268;52.506;13.462;2023-02-08T06:59:28;27.17;;;20.43;;
8462;SDS011;4268;52.506;13.462;2023-02-08T07:01:54;31.20;;;20.50;;
8462;SDS011;4268;52.506;13.462;2023-02-08T07:04:19;28.57;;;21.40;;
8462;SDS011;4268;52.506;13.462;2023-02-08T07:06:48;29.13;;;21.30;;
8462;SDS011;4268;52.506;13.462;2023-02-08T07:09:14;28.47;;;20.90;;
8462;SDS011;4268;52.506;13.462;2023-02-08T07:11:40;27.13;;;21.57;;
8462;SDS011;4268;52.506;13.462;2023-02-08T07:14:05;31.53;;;23.60;;
8462;SDS011;4268;52.506;13.462;2023-02-08T07:16:31;27.67;;;20.07;;
8462;SDS011;4268;52.506;13.462;2023-02-08T07:18:56;29.87;;;21.97;;
8462;SDS011;4268;52.506;13.462;2023-02-08T07:21:22;27.63;;;21.03;;
8462;SDS011;4268;52.506;13.462;2023-02-08T07:23:48;28.90;;;21.43;;
8462;SDS011;4268;52.506;13.462;2023-02-08T07:26:14;28.90;;;19.90;;
8462;SDS011;4268;52.506;13.462;2023-02-08T07:28:39;23.63;;;19.37;;
8462;SDS011;4268;52.506;13.462;2023-02-08T07:31:09;25.17;;;19.33;;
8462;SDS011;4268;52.506;13.462;2023-02-08T07:33:37;24.27;;;18.73;;
8462;SDS011;4268;52.506;13.462;2023-02-08T07:36:02;23.73;;;18.40;;
8462;SDS011;4268;52.506;13.462;2023-02-08T07:38:29;24.10;;;18.63;;
8462;SDS011;4268;52.506;13.462;2023-02-08T07:41:00;22.67;;;18.27;;
8462;SDS011;4268;52.506;13.462;2023-02-08T07:43:29;24.27;;;19.30;;
8462;SDS011;4268;52.506;13.462;2023-02-08T07:45:55;25.70;;;23.03;;
8462;SDS011;4268;52.506;13.462;2023-02-08T07:48:20;24.23;;;19.33;;
8462;SDS011;4268;52.506;13.462;2023-02-08T07:50:46;25.03;;;22.43;;
8462;SDS011;4268;52.506;13.462;2023-02-08T07:53:11;25.10;;;20.43;;
8462;SDS011;4268;52.506;13.462;2023-02-08T07:55:37;25.90;;;19.67;;
8462;SDS011;4268;52.506;13.462;2023-02-08T07:58:02;24.13;;;19.00;;
8462;SDS011;4268;52.506;13.462;2023-02-08T08:00:28;24.77;;;21.40;;
8462;SDS011;4268;52.506;13.462;2023-02-08T08:02:53;31.13;;;20.53;;
8462;SDS011;4268;52.506;13.462;2023-02-08T08:05:19;24.27;;;20.10;;
8462;SDS011;4268;52.506;13.462;2023-02-08T08:07:45;25.57;;;19.27;;
8462;SDS011;4268;52.506;13.462;2023-02-08T08:10:11;28.30;;;20.00;;
8462;SDS011;4268;52.506;13.462;2023-02-08T08:12:36;27.83;;;20.47;;
8462;SDS011;4268;52.506;13.462;2023-02-08T08:15:02;30.17;;;21.03;;
8462;SDS011;4268;52.506;13.462;2023-02-08T08:17:28;27.00;;;20.67;;
8462;SDS011;4268;52.506;13.462;2023-02-08T08:19:53;27.70;;;20.33;;
8462;SDS011;4268;52.506;13.462;2023-02-08T08:22:19;27.83;;;19.90;;
8462;SDS011;4268;52.506;13.462;2023-02-08T08:24:44;27.73;;;20.87;;
8462;SDS011;4268;52.506;13.462;2023-02-08T08:27:10;28.07;;;20.50;;
8462;SDS011;4268;52.506;13.462;2023-02-08T08:29:35;28.77;;;20.90;;
8462;SDS011;4268;52.506;13.462;2023-02-08T08:32:01;25.50;;;19.70;;
8462;SDS011;4268;52.506;13.462;2023-02-08T08:34:28;29.77;;;20.43;;
8462;SDS011;4268;52.506;13.462;2023-02-08T08:36:54;26.73;;;20.37;;
8462;SDS011;4268;52.506;13.462;2023-02-08T08:39:20;27.10;;;20.90;;
8462;SDS011;4268;52.506;13.462;2023-02-08T08:41:46;26.33;;;20.83;;
8462;SDS011;4268;52.506;13.462;2023-02-08T08:44:11;27.57;;;21.63;;
8462;SDS011;4268;52.506;13.462;2023-02-08T08:46:37;29.60;;;22.00;;
8462;SDS011;4268;52.506;13.462;2023-02-08T08:49:03;26.20;;;19.70;;
8462;SDS011;4268;52.506;13.462;2023-02-08T08:51:29;29.73;;;22.17;;
8462;SDS011;4268;52.506;13.462;2023-02-08T08:53:59;27.30;;;20.10;;
8462;SDS011;4268;52.506;13.462;2023-02-08T08:56:28;26.87;;;22.27;;
8462;SDS011;4268;52.506;13.462;2023-02-08T08:58:53;28.57;;;21.87;;
8462;SDS011;4268;52.506;13.462;2023-02-08T09:01:19;27.33;;;20.97;;
8462;SDS011;4268;52.506;13.462;2023-02-08T09:03:44;30.27;;;22.53;;
8462;SDS011;4268;52.506;13.462;2023-02-08T09:06:10;29.10;;;21.10;;
8462;SDS011;4268;52.506;13.462;2023-02-08T09:08:36;29.50;;;21.67;;
8462;SDS011;4268;52.506;13.462;2023-02-08T09:11:10;30.67;;;22.03;;
8462;SDS011;4268;52.506;13.462;2023-02-08T09:13:38;31.27;;;25.57;;
8462;SDS011;4268;52.506;13.462;2023-02-08T09:16:13;30.03;;;22.47;;
8462;SDS011;4268;52.506;13.462;2023-02-08T09:18:41;26.80;;;21.67;;
8462;SDS011;4268;52.506;13.462;2023-02-08T09:21:08;31.87;;;23.50;;
8462;SDS011;4268;52.506;13.462;2023-02-08T09:23:35;29.80;;;22.77;;
8462;SDS011;4268;52.506;13.462;2023-02-08T09:26:04;32.23;;;22.70;;
8462;SDS011;4268;52.506;13.462;2023-02-08T09:28:32;27.53;;;20.97;;
8462;SDS011;4268;52.506;13.462;2023-02-08T09:30:58;30.20;;;23.33;;
8462;SDS011;4268;52.506;13.462;2023-02-08T09:33:25;30.67;;;23.10;;
8462;SDS011;4268;52.506;13.462;2023-02-08T09:35:51;26.33;;;20.90;;
8462;SDS011;4268;52.506;13.462;2023-02-08T09:38:17;28.67;;;22.23;;
8462;SDS011;4268;52.506;13.462;2023-02-08T09:40:53;31.17;;;22.07;;
8462;SDS011;4268;52.506;13.462;2023-02-08T09:46:15;29.77;;;21.43;;
8462;SDS011;4268;52.506;13.462;2023-02-08T09:48:45;28.33;;;21.37;;
8462;SDS011;4268;52.506;13.462;2023-02-08T09:51:23;28.67;;;21.73;;
8462;SDS011;4268;52.506;13.462;2023-02-08T09:53:58;32.93;;;23.10;;
8462;SDS011;4268;52.506;13.462;2023-02-08T09:56:28;26.83;;;21.70;;
8462;SDS011;4268;52.506;13.462;2023-02-08T09:58:56;28.03;;;22.10;;
8462;SDS011;4268;52.506;13.462;2023-02-08T10:01:25;29.13;;;22.63;;
8462;SDS011;4268;52.506;13.462;2023-02-08T10:03:58;32.07;;;23.77;;
8462;SDS011;4268;52.506;13.462;2023-02-08T10:06:28;31.63;;;22.97;;
8462;SDS011;4268;52.506;13.462;2023-02-08T10:08:54;30.03;;;22.80;;
8462;SDS011;4268;52.506;13.462;2023-02-08T10:14:27;29.40;;;22.87;;
8462;SDS011;4268;52.506;13.462;2023-02-08T10:17:03;29.60;;;23.70;;
8462;SDS011;4268;52.506;13.462;2023-02-08T10:19:41;31.97;;;23.83;;
8462;SDS011;4268;52.506;13.462;2023-02-08T10:29:51;29.03;;;22.70;;
8462;SDS011;4268;52.506;13.462;2023-02-08T10:33:10;27.53;;;21.67;;
8462;SDS011;4268;52.506;13.462;2023-02-08T10:35:23;29.43;;;23.20;;
8462;SDS011;4268;52.506;13.462;2023-02-08T10:37:52;35.63;;;31.93;;
8462;SDS011;4268;52.506;13.462;2023-02-08T10:40:33;30.73;;;22.73;;
8462;SDS011;4268;52.506;13.462;2023-02-08T10:43:04;28.87;;;22.40;;
8462;SDS011;4268;52.506;13.462;2023-02-08T10:46:01;30.77;;;23.47;;
8462;SDS011;4268;52.506;13.462;2023-02-08T10:51:35;29.23;;;22.63;;
8462;SDS011;4268;52.506;13.462;2023-02-08T10:54:01;30.47;;;22.87;;
8462;SDS011;4268;52.506;13.462;2023-02-08T10:59:00;27.47;;;21.90;;
8462;SDS011;4268;52.506;13.462;2023-02-08T11:01:37;29.07;;;23.87;;
8462;SDS011;4268;52.506;13.462;2023-02-08T11:04:12;27.20;;;21.90;;
8462;SDS011;4268;52.506;13.462;2023-02-08T11:06:39;35.10;;;31.37;;
8462;SDS011;4268;52.506;13.462;2023-02-08T11:09:06;30.47;;;22.80;;
8462;SDS011;4268;52.506;13.462;2023-02-08T11:11:43;27.90;;;22.77;;
8462;SDS011;4268;52.506;13.462;2023-02-08T11:14:17;35.17;;;31.57;;
8462;SDS011;4268;52.506;13.462;2023-02-08T11:16:56;26.30;;;21.30;;
8462;SDS011;4268;52.506;13.462;2023-02-08T11:19:33;28.67;;;22.60;;
8462;SDS011;4268;52.506;13.462;2023-02-08T11:22:18;50.13;;;45.87;;
8462;SDS011;4268;52.506;13.462;2023-02-08T11:25:00;26.27;;;21.17;;
8462;SDS011;4268;52.506;13.462;2023-02-08T11:32:41;28.67;;;22.73;;
8462;SDS011;4268;52.506;13.462;2023-02-08T11:35:18;26.50;;;22.33;;
8462;SDS011;4268;52.506;13.462;2023-02-08T11:37:47;27.17;;;22.27;;
8462;SDS011;4268;52.506;13.462;2023-02-08T11:40:18;29.80;;;23.10;;
8462;SDS011;4268;52.506;13.462;2023-02-08T11:42:56;29.67;;;22.33;;
8462;SDS011;4268;52.506;13.462;2023-02-08T11:45:24;29.37;;;22.33;;
8462;SDS011;4268;52.506;13.462;2023-02-08T11:47:55;33.90;;;30.03;;
8462;SDS011;4268;52.506;13.462;2023-02-08T11:50:34;23.97;;;19.33;;
8462;SDS011;4268;52.506;13.462;2023-02-08T11:53:02;25.03;;;20.77;;
8462;SDS011;4268;52.506;13.462;2023-02-08T11:55:31;29.90;;;21.53;;
8462;SDS011;4268;52.506;13.462;2023-02-08T11:58:04;29.07;;;22.17;;
8462;SDS011;4268;52.506;13.462;2023-02-08T12:00:37;26.03;;;20.87;;
8462;SDS011;4268;52.506;13.462;2023-02-08T12:03:08;24.93;;;19.47;;
8462;SDS011;4268;52.506;13.462;2023-02-08T12:08:29;28.70;;;22.27;;
8462;SDS011;4268;52.506;13.462;2023-02-08T12:11:13;29.00;;;21.67;;
8462;SDS011;4268;52.506;13.462;2023-02-08T12:14:01;27.37;;;21.20;;
8462;SDS011;4268;52.506;13.462;2023-02-08T12:22:08;24.70;;;20.43;;
8462;SDS011;4268;52.506;13.462;2023-02-08T12:24:46;26.30;;;21.17;;
8462;SDS011;4268;52.506;13.462;2023-02-08T12:27:32;26.73;;;20.63;;
8462;SDS011;4268;52.506;13.462;2023-02-08T12:30:17;28.47;;;21.60;;
8462;SDS011;4268;52.506;13.462;2023-02-08T12:32:58;23.73;;;20.33;;
8462;SDS011;4268;52.506;13.462;2023-02-08T12:49:27;25.23;;;20.93;;
8462;SDS011;4268;52.506;13.462;2023-02-08T12:52:23;25.77;;;20.73;;
8462;SDS011;4268;52.506;13.462;2023-02-08T12:55:13;25.27;;;20.53;;
8462;SDS011;4268;52.506;13.462;2023-02-08T12:57:51;26.90;;;20.93;;
8462;SDS011;4268;52.506;13.462;2023-02-08T13:00:21;25.00;;;21.23;;
8462;SDS011;4268;52.506;13.462;2023-02-08T13:05:59;28.50;;;25.30;;
8462;SDS011;4268;52.506;13.462;2023-02-08T13:08:29;27.67;;;20.80;;
8462;SDS011;4268;52.506;13.462;2023-02-08T13:11:16;25.93;;;21.60;;
8462;SDS011;4268;52.506;13.462;2023-02-08T13:13:51;27.60;;;22.10;;
8462;SDS011;4268;52.506;13.462;2023-02-08T13:16:40;27.60;;;21.07;;
8462;SDS011;4268;52.506;13.462;2023-02-08T13:19:20;25.53;;;20.93;;
8462;SDS011;4268;52.506;13.462;2023-02-08T13:21:53;27.97;;;21.23;;
8462;SDS011;4268;52.506;13.462;2023-02-08T13:26:54;24.63;;;20.63;;
8462;SDS011;4268;52.506;13.462;2023-02-08T13:29:21;25.93;;;20.57;;
8462;SDS011;4268;52.506;13.462;2023-02-08T13:31:52;26.10;;;21.33;;
8462;SDS011;4268;52.506;13.462;2023-02-08T13:34:30;27.10;;;20.27;;
8462;SDS011;4268;52.506;13.462;2023-02-08T13:37:05;25.07;;;19.40;;
8462;SDS011;4268;52.506;13.462;2023-02-08T13:39:42;26.00;;;19.93;;
8462;SDS011;4268;52.506;13.462;2023-02-08T13:42:17;28.30;;;20.37;;
8462;SDS011;4268;52.506;13.462;2023-02-08T13:44:50;26.67;;;20.23;;
8462;SDS011;4268;52.506;13.462;2023-02-08T13:47:23;26.87;;;21.07;;
8462;SDS011;4268;52.506;13.462;2023-02-08T13:49:52;27.30;;;21.00;;
8462;SDS011;4268;52.506;13.462;2023-02-08T13:58:00;26.27;;;20.23;;
8462;SDS011;4268;52.506;13.462;2023-02-08T14:00:28;25.10;;;19.60;;
8462;SDS011;4268;52.506;13.462;2023-02-08T14:03:03;24.70;;;20.43;;
8462;SDS011;4268;52.506;13.462;2023-02-08T14:08:51;25.67;;;20.77;;
8462;SDS011;4268;52.506;13.462;2023-02-08T14:14:18;24.77;;;20.17;;
8462;SDS011;4268;52.506;13.462;2023-02-08T14:19:29;24.17;;;19.07;;
8462;SDS011;4268;52.506;13.462;2023-02-08T14:22:01;25.90;;;20.50;;
8462;SDS011;4268;52.506;13.462;2023-02-08T14:24:42;25.27;;;20.27;;
8462;SDS011;4268;52.506;13.462;2023-02-08T14:32:41;27.80;;;19.70;;
8462;SDS011;4268;52.506;13.462;2023-02-08T14:35:17;24.03;;;19.63;;
8462;SDS011;4268;52.506;13.462;2023-02-08T14:37:49;24.67;;;19.50;;
8462;SDS011;4268;52.506;13.462;2023-02-08T14:45:45;24.60;;;18.97;;
8462;SDS011;4268;52.506;13.462;2023-02-08T14:58:50;22.23;;;18.03;;
8462;SDS011;4268;52.506;13.462;2023-02-08T15:04:04;25.33;;;18.43;;
8462;SDS011;4268;52.506;13.462;2023-02-08T15:09:01;24.20;;;17.97;;
8462;SDS011;4268;52.506;13.462;2023-02-08T15:11:30;22.40;;;18.97;;
8462;SDS011;4268;52.506;13.462;2023-02-08T15:13:59;20.27;;;17.47;;
8462;SDS011;4268;52.506;13.462;2023-02-08T15:16:41;22.13;;;18.33;;
8462;SDS011;4268;52.506;13.462;2023-02-08T15:19:08;22.50;;;18.80;;
8462;SDS011;4268;52.506;13.462;2023-02-08T15:21:42;27.00;;;19.53;;
8462;SDS011;4268;52.506;13.462;2023-02-08T15:24:14;25.47;;;19.27;;
8462;SDS011;4268;52.506;13.462;2023-02-08T15:26:46;25.87;;;19.23;;
8462;SDS011;4268;52.506;13.462;2023-02-08T15:29:18;25.67;;;19.50;;
8462;SDS011;4268;52.506;13.462;2023-02-08T15:31:48;22.13;;;17.33;;
8462;SDS011;4268;52.506;13.462;2023-02-08T15:34:15;21.80;;;17.77;;
8462;SDS011;4268;52.506;13.462;2023-02-08T15:36:44;23.00;;;17.70;;
8462;SDS011;4268;52.506;13.462;2023-02-08T15:39:33;23.17;;;18.57;;
8462;SDS011;4268;52.506;13.462;2023-02-08T15:42:02;23.30;;;18.87;;
8462;SDS011;4268;52.506;13.462;2023-02-08T15:44:30;22.97;;;18.37;;
8462;SDS011;4268;52.506;13.462;2023-02-08T15:46:58;24.07;;;18.80;;
8462;SDS011;4268;52.506;13.462;2023-02-08T15:49:29;24.43;;;18.73;;
8462;SDS011;4268;52.506;13.462;2023-02-08T15:51:55;23.57;;;19.00;;
8462;SDS011;4268;52.506;13.462;2023-02-08T15:54:22;23.63;;;18.80;;
8462;SDS011;4268;52.506;13.462;2023-02-08T15:56:49;28.10;;;19.83;;
8462;SDS011;4268;52.506;13.462;2023-02-08T15:59:38;25.27;;;19.30;;
8462;SDS011;4268;52.506;13.462;2023-02-08T16:02:17;25.60;;;20.03;;
8462;SDS011;4268;52.506;13.462;2023-02-08T16:04:44;23.53;;;18.60;;
8462;SDS011;4268;52.506;13.462;2023-02-08T16:09:53;23.83;;;18.40;;
8462;SDS011;4268;52.506;13.462;2023-02-08T16:12:21;21.37;;;17.17;;
8462;SDS011;4268;52.506;13.462;2023-02-08T16:14:49;22.87;;;19.00;;
8462;SDS011;4268;52.506;13.462;2023-02-08T16:17:35;23.13;;;18.70;;
8462;SDS011;4268;52.506;13.462;2023-02-08T16:20:28;23.43;;;17.67;;
8462;SDS011;4268;52.506;13.462;2023-02-08T16:22:57;24.20;;;18.77;;
8462;SDS011;4268;52.506;13.462;2023-02-08T16:28:21;23.60;;;18.70;;
8462;SDS011;4268;52.506;13.462;2023-02-08T16:30:51;24.23;;;19.10;;
8462;SDS011;4268;52.506;13.462;2023-02-08T16:33:18;24.57;;;18.90;;
8462;SDS011;4268;52.506;13.462;2023-02-08T16:35:44;23.87;;;18.43;;
8462;SDS011;4268;52.506;13.462;2023-02-08T16:38:11;24.07;;;18.47;;
8462;SDS011;4268;52.506;13.462;2023-02-08T16:40:49;22.47;;;18.80;;
8462;SDS011;4268;52.506;13.462;2023-02-08T16:43:18;23.23;;;17.97;;
8462;SDS011;4268;52.506;13.462;2023-02-08T16:46:14;23.60;;;18.83;;
8462;SDS011;4268;52.506;13.462;2023-02-08T16:48:35;22.77;;;18.30;;
8462;SDS011;4268;52.506;13.462;2023-02-08T16:51:06;26.00;;;18.80;;
8462;SDS011;4268;52.506;13.462;2023-02-08T16:53:36;26.20;;;18.80;;